sensor_id;sensor_type;location;lat;lon;timestamp;P1;durP1;ratioP1;P2;durP2;ratioP2
36247;SDS011;22287;50.824;5.644;2023-03-29T00:02:23;3.42;;;1.20;;
36247;SDS011;22287;50.824;5.644;2023-03-29T00:04:58;2.83;;;1.30;;
36247;SDS011;22287;50.824;5.644;2023-03-29T00:07:27;2.42;;;1.30;;
36247;SDS011;22287;50.824;5.644;2023-03-29T00:09:55;3.90;;;1.30;;
36247;SDS011;22287;50.824;5.644;2023-03-29T00:12:23;2.47;;;1.23;;
36247;SDS011;22287;50.824;5.644;2023-03-29T00:14:50;3.25;;;1.30;;
36247;SDS011;22287;50.824;5.644;2023-03-29T00:17:17;2.13;;;1.25;;
36247;SDS011;22287;50.824;5.644;2023-03-29T00:19:44;1.45;;;1.10;;
36247;SDS011;22287;50.824;5.644;2023-03-29T00:22:12;3.70;;;1.33;;
36247;SDS011;22287;50.824;5.644;2023-03-29T00:24:39;2.42;;;1.20;;
36247;SDS011;22287;50.824;5.644;2023-03-29T00:27:06;3.30;;;1.30;;
36247;SDS011;22287;50.824;5.644;2023-03-29T00:29:33;2.95;;;1.40;;
36247;SDS011;22287;50.824;5.644;2023-03-29T00:31:59;4.45;;;1.50;;
36247;SDS011;22287;50.824;5.644;2023-03-29T00:34:27;4.88;;;1.17;;
36247;SDS011;22287;50.824;5.644;2023-03-29T00:36:57;2.53;;;1.23;;
36247;SDS011;22287;50.824;5.644;2023-03-29T00:39:24;2.80;;;1.30;;
36247;SDS011;22287;50.824;5.644;2023-03-29T00:41:53;2.72;;;1.50;;
36247;SDS011;22287;50.824;5.644;2023-03-29T00:47:26;4.53;;;1.25;;
36247;SDS011;22287;50.824;5.644;2023-03-29T00:49:58;3.58;;;1.40;;
36247;SDS011;22287;50.824;5.644;2023-03-29T00:52:30;3.75;;;1.50;;
36247;SDS011;22287;50.824;5.644;2023-03-29T00:54:59;2.35;;;1.27;;
36247;SDS011;22287;50.824;5.644;2023-03-29T00:57:29;1.80;;;1.20;;
36247;SDS011;22287;50.824;5.644;2023-03-29T00:59:58;2.60;;;1.30;;
36247;SDS011;22287;50.824;5.644;2023-03-29T01:02:30;2.42;;;1.35;;
36247;SDS011;22287;50.824;5.644;2023-03-29T01:05:04;3.03;;;1.50;;
36247;SDS011;22287;50.824;5.644;2023-03-29T01:10:14;2.80;;;1.27;;
36247;SDS011;22287;50.824;5.644;2023-03-29T01:12:47;3.33;;;1.30;;
36247;SDS011;22287;50.824;5.644;2023-03-29T01:15:21;2.25;;;1.20;;
36247;SDS011;22287;50.824;5.644;2023-03-29T01:17:53;1.48;;;0.82;;
36247;SDS011;22287;50.824;5.644;2023-03-29T01:25:49;2.70;;;1.10;;
36247;SDS011;22287;50.824;5.644;2023-03-29T01:29:14;6.28;;;1.55;;
36247;SDS011;22287;50.824;5.644;2023-03-29T01:31:36;2.45;;;1.25;;
36247;SDS011;22287;50.824;5.644;2023-03-29T01:37:08;2.35;;;1.17;;
36247;SDS011;22287;50.824;5.644;2023-03-29T01:39:36;2.00;;;1.08;;
36247;SDS011;22287;50.824;5.644;2023-03-29T01:49:41;1.65;;;1.13;;
36247;SDS011;22287;50.824;5.644;2023-03-29T01:52:21;2.00;;;1.10;;
36247;SDS011;22287;50.824;5.644;2023-03-29T01:54:54;3.33;;;1.60;;
36247;SDS011;22287;50.824;5.644;2023-03-29T01:57:35;1.58;;;0.85;;
36247;SDS011;22287;50.824;5.644;2023-03-29T02:00:06;2.72;;;1.15;;
36247;SDS011;22287;50.824;5.644;2023-03-29T02:02:37;2.13;;;1.10;;
36247;SDS011;22287;50.824;5.644;2023-03-29T02:05:08;2.30;;;1.05;;
36247;SDS011;22287;50.824;5.644;2023-03-29T02:07:37;1.95;;;1.10;;
36247;SDS011;22287;50.824;5.644;2023-03-29T02:10:06;2.47;;;1.27;;
36247;SDS011;22287;50.824;5.644;2023-03-29T02:12:35;6.88;;;1.15;;
36247;SDS011;22287;50.824;5.644;2023-03-29T02:15:04;2.28;;;1.10;;
36247;SDS011;22287;50.824;5.644;2023-03-29T02:17:35;4.03;;;1.02;;
36247;SDS011;22287;50.824;5.644;2023-03-29T02:20:16;2.80;;;1.80;;
36247;SDS011;22287;50.824;5.644;2023-03-29T02:22:46;2.25;;;1.25;;
36247;SDS011;22287;50.824;5.644;2023-03-29T02:25:20;3.20;;;0.93;;
36247;SDS011;22287;50.824;5.644;2023-03-29T02:27:48;4.80;;;1.20;;
36247;SDS011;22287;50.824;5.644;2023-03-29T02:30:15;2.78;;;1.80;;
36247;SDS011;22287;50.824;5.644;2023-03-29T02:32:48;4.45;;;1.13;;
36247;SDS011;22287;50.824;5.644;2023-03-29T02:35:26;2.17;;;1.30;;
36247;SDS011;22287;50.824;5.644;2023-03-29T02:38:00;3.38;;;1.15;;
36247;SDS011;22287;50.824;5.644;2023-03-29T02:40:33;4.28;;;1.30;;
36247;SDS011;22287;50.824;5.644;2023-03-29T02:43:03;2.10;;;0.93;;
36247;SDS011;22287;50.824;5.644;2023-03-29T02:45:32;1.90;;;1.00;;
36247;SDS011;22287;50.824;5.644;2023-03-29T02:48:03;4.28;;;1.17;;
36247;SDS011;22287;50.824;5.644;2023-03-29T02:50:34;2.33;;;1.20;;
36247;SDS011;22287;50.824;5.644;2023-03-29T02:53:08;1.70;;;1.15;;
36247;SDS011;22287;50.824;5.644;2023-03-29T02:55:41;1.95;;;1.08;;
36247;SDS011;22287;50.824;5.644;2023-03-29T02:58:12;5.83;;;1.23;;
36247;SDS011;22287;50.824;5.644;2023-03-29T03:00:43;3.53;;;1.15;;
36247;SDS011;22287;50.824;5.644;2023-03-29T03:03:12;5.40;;;1.55;;
36247;SDS011;22287;50.824;5.644;2023-03-29T03:05:42;2.17;;;0.90;;
36247;SDS011;22287;50.824;5.644;2023-03-29T03:08:09;3.60;;;1.02;;
36247;SDS011;22287;50.824;5.644;2023-03-29T03:10:36;1.73;;;1.13;;
36247;SDS011;22287;50.824;5.644;2023-03-29T03:13:04;2.83;;;0.95;;
36247;SDS011;22287;50.824;5.644;2023-03-29T03:15:31;3.22;;;1.10;;
36247;SDS011;22287;50.824;5.644;2023-03-29T03:18:01;2.10;;;1.20;;
36247;SDS011;22287;50.824;5.644;2023-03-29T03:20:29;2.20;;;1.23;;
36247;SDS011;22287;50.824;5.644;2023-03-29T03:22:56;3.10;;;1.05;;
36247;SDS011;22287;50.824;5.644;2023-03-29T03:25:23;4.15;;;1.42;;
36247;SDS011;22287;50.824;5.644;2023-03-29T03:27:51;1.98;;;1.23;;
36247;SDS011;22287;50.824;5.644;2023-03-29T03:30:21;3.13;;;1.55;;
36247;SDS011;22287;50.824;5.644;2023-03-29T03:32:53;2.28;;;1.10;;
36247;SDS011;22287;50.824;5.644;2023-03-29T03:35:20;7.95;;;1.65;;
36247;SDS011;22287;50.824;5.644;2023-03-29T03:37:48;2.78;;;1.60;;
36247;SDS011;22287;50.824;5.644;2023-03-29T03:40:16;2.80;;;1.50;;
36247;SDS011;22287;50.824;5.644;2023-03-29T03:42:43;4.22;;;1.40;;
36247;SDS011;22287;50.824;5.644;2023-03-29T03:45:10;4.15;;;1.90;;
36247;SDS011;22287;50.824;5.644;2023-03-29T03:47:37;2.50;;;1.55;;
36247;SDS011;22287;50.824;5.644;2023-03-29T03:53:17;2.17;;;1.50;;
36247;SDS011;22287;50.824;5.644;2023-03-29T03:56:03;3.05;;;1.27;;
36247;SDS011;22287;50.824;5.644;2023-03-29T03:58:45;3.30;;;1.52;;
36247;SDS011;22287;50.824;5.644;2023-03-29T04:01:15;5.35;;;1.40;;
36247;SDS011;22287;50.824;5.644;2023-03-29T04:03:52;2.47;;;1.05;;
36247;SDS011;22287;50.824;5.644;2023-03-29T04:06:19;3.55;;;1.45;;
36247;SDS011;22287;50.824;5.644;2023-03-29T04:09:12;3.03;;;1.58;;
36247;SDS011;22287;50.824;5.644;2023-03-29T04:11:42;2.10;;;1.10;;
36247;SDS011;22287;50.824;5.644;2023-03-29T04:14:11;2.78;;;1.25;;
36247;SDS011;22287;50.824;5.644;2023-03-29T04:16:56;3.78;;;1.30;;
36247;SDS011;22287;50.824;5.644;2023-03-29T04:19:58;3.00;;;1.40;;
36247;SDS011;22287;50.824;5.644;2023-03-29T04:22:31;3.45;;;1.40;;
36247;SDS011;22287;50.824;5.644;2023-03-29T04:24:58;2.65;;;1.08;;
36247;SDS011;22287;50.824;5.644;2023-03-29T04:27:44;2.90;;;1.20;;
36247;SDS011;22287;50.824;5.644;2023-03-29T04:30:30;2.25;;;1.40;;
36247;SDS011;22287;50.824;5.644;2023-03-29T04:33:08;2.55;;;1.67;;
36247;SDS011;22287;50.824;5.644;2023-03-29T04:35:38;2.20;;;1.10;;
36247;SDS011;22287;50.824;5.644;2023-03-29T04:38:10;2.95;;;1.00;;
36247;SDS011;22287;50.824;5.644;2023-03-29T04:40:39;5.35;;;1.20;;
36247;SDS011;22287;50.824;5.644;2023-03-29T04:43:15;4.72;;;1.40;;
36247;SDS011;22287;50.824;5.644;2023-03-29T04:45:52;2.05;;;1.20;;
36247;SDS011;22287;50.824;5.644;2023-03-29T04:48:39;3.80;;;1.55;;
36247;SDS011;22287;50.824;5.644;2023-03-29T04:51:07;2.78;;;1.42;;
36247;SDS011;22287;50.824;5.644;2023-03-29T04:53:33;4.80;;;1.55;;
36247;SDS011;22287;50.824;5.644;2023-03-29T04:56:00;5.28;;;1.52;;
36247;SDS011;22287;50.824;5.644;2023-03-29T04:58:48;3.75;;;1.33;;
36247;SDS011;22287;50.824;5.644;2023-03-29T05:01:16;2.13;;;1.40;;
36247;SDS011;22287;50.824;5.644;2023-03-29T05:03:51;2.33;;;1.33;;
36247;SDS011;22287;50.824;5.644;2023-03-29T05:06:23;3.13;;;1.48;;
36247;SDS011;22287;50.824;5.644;2023-03-29T05:08:50;4.32;;;1.27;;
36247;SDS011;22287;50.824;5.644;2023-03-29T05:11:21;2.08;;;1.20;;
36247;SDS011;22287;50.824;5.644;2023-03-29T05:13:51;2.45;;;1.58;;
36247;SDS011;22287;50.824;5.644;2023-03-29T05:16:18;2.10;;;1.48;;
36247;SDS011;22287;50.824;5.644;2023-03-29T05:18:46;2.80;;;1.13;;
36247;SDS011;22287;50.824;5.644;2023-03-29T05:21:13;4.07;;;1.50;;
36247;SDS011;22287;50.824;5.644;2023-03-29T05:23:43;3.22;;;1.65;;
36247;SDS011;22287;50.824;5.644;2023-03-29T05:26:33;3.00;;;1.50;;
36247;SDS011;22287;50.824;5.644;2023-03-29T05:28:59;3.85;;;1.67;;
36247;SDS011;22287;50.824;5.644;2023-03-29T05:31:26;5.70;;;2.05;;
36247;SDS011;22287;50.824;5.644;2023-03-29T05:33:54;2.55;;;1.50;;
36247;SDS011;22287;50.824;5.644;2023-03-29T05:36:21;2.00;;;1.50;;
36247;SDS011;22287;50.824;5.644;2023-03-29T05:38:49;3.83;;;1.58;;
36247;SDS011;22287;50.824;5.644;2023-03-29T05:41:18;5.85;;;1.55;;
36247;SDS011;22287;50.824;5.644;2023-03-29T05:44:04;2.60;;;1.83;;
36247;SDS011;22287;50.824;5.644;2023-03-29T05:46:32;2.67;;;1.60;;
36247;SDS011;22287;50.824;5.644;2023-03-29T05:49:01;2.90;;;1.20;;
36247;SDS011;22287;50.824;5.644;2023-03-29T05:52:00;6.47;;;1.80;;
36247;SDS011;22287;50.824;5.644;2023-03-29T05:54:29;8.20;;;2.40;;
36247;SDS011;22287;50.824;5.644;2023-03-29T05:56:56;3.92;;;1.13;;
36247;SDS011;22287;50.824;5.644;2023-03-29T05:59:24;2.60;;;1.35;;
36247;SDS011;22287;50.824;5.644;2023-03-29T06:01:54;9.35;;;2.00;;
36247;SDS011;22287;50.824;5.644;2023-03-29T06:04:22;4.60;;;1.85;;
36247;SDS011;22287;50.824;5.644;2023-03-29T06:07:06;3.92;;;1.60;;
36247;SDS011;22287;50.824;5.644;2023-03-29T06:09:36;5.30;;;2.30;;
36247;SDS011;22287;50.824;5.644;2023-03-29T06:12:06;3.85;;;1.80;;
36247;SDS011;22287;50.824;5.644;2023-03-29T06:14:52;5.43;;;1.80;;
36247;SDS011;22287;50.824;5.644;2023-03-29T06:17:26;4.35;;;1.38;;
36247;SDS011;22287;50.824;5.644;2023-03-29T06:19:53;4.07;;;1.42;;
36247;SDS011;22287;50.824;5.644;2023-03-29T06:22:23;3.05;;;1.30;;
36247;SDS011;22287;50.824;5.644;2023-03-29T06:24:50;2.65;;;1.70;;
36247;SDS011;22287;50.824;5.644;2023-03-29T06:27:27;3.05;;;1.88;;
36247;SDS011;22287;50.824;5.644;2023-03-29T06:29:55;4.70;;;1.50;;
36247;SDS011;22287;50.824;5.644;2023-03-29T06:32:23;3.50;;;1.33;;
36247;SDS011;22287;50.824;5.644;2023-03-29T06:35:00;3.92;;;1.25;;
36247;SDS011;22287;50.824;5.644;2023-03-29T06:37:30;3.92;;;1.77;;
36247;SDS011;22287;50.824;5.644;2023-03-29T06:40:20;4.47;;;1.73;;
36247;SDS011;22287;50.824;5.644;2023-03-29T06:42:48;7.55;;;2.60;;
36247;SDS011;22287;50.824;5.644;2023-03-29T06:45:35;4.85;;;1.98;;
36247;SDS011;22287;50.824;5.644;2023-03-29T06:48:09;3.22;;;1.67;;
36247;SDS011;22287;50.824;5.644;2023-03-29T06:50:36;5.13;;;2.28;;
36247;SDS011;22287;50.824;5.644;2023-03-29T06:53:08;2.55;;;1.60;;
36247;SDS011;22287;50.824;5.644;2023-03-29T06:55:37;2.95;;;2.05;;
36247;SDS011;22287;50.824;5.644;2023-03-29T06:58:22;3.15;;;1.88;;
36247;SDS011;22287;50.824;5.644;2023-03-29T07:00:49;3.90;;;1.20;;
36247;SDS011;22287;50.824;5.644;2023-03-29T07:03:26;4.20;;;1.50;;
36247;SDS011;22287;50.824;5.644;2023-03-29T07:05:58;2.83;;;1.63;;
36247;SDS011;22287;50.824;5.644;2023-03-29T07:08:38;5.30;;;2.05;;
36247;SDS011;22287;50.824;5.644;2023-03-29T07:11:24;3.42;;;1.63;;
36247;SDS011;22287;50.824;5.644;2023-03-29T07:13:56;3.70;;;1.73;;
36247;SDS011;22287;50.824;5.644;2023-03-29T07:16:24;3.72;;;1.50;;
36247;SDS011;22287;50.824;5.644;2023-03-29T07:19:17;3.25;;;1.67;;
36247;SDS011;22287;50.824;5.644;2023-03-29T07:21:54;3.55;;;1.50;;
36247;SDS011;22287;50.824;5.644;2023-03-29T07:24:36;4.43;;;1.60;;
36247;SDS011;22287;50.824;5.644;2023-03-29T07:27:03;3.22;;;1.30;;
36247;SDS011;22287;50.824;5.644;2023-03-29T07:29:31;4.25;;;1.73;;
36247;SDS011;22287;50.824;5.644;2023-03-29T07:31:58;3.67;;;1.38;;
36247;SDS011;22287;50.824;5.644;2023-03-29T07:34:45;7.03;;;1.95;;
36247;SDS011;22287;50.824;5.644;2023-03-29T07:37:21;3.33;;;1.73;;
36247;SDS011;22287;50.824;5.644;2023-03-29T07:39:48;4.28;;;1.60;;
36247;SDS011;22287;50.824;5.644;2023-03-29T07:42:45;4.10;;;2.08;;
36247;SDS011;22287;50.824;5.644;2023-03-29T07:45:16;3.28;;;1.75;;
36247;SDS011;22287;50.824;5.644;2023-03-29T07:47:57;5.40;;;2.50;;
36247;SDS011;22287;50.824;5.644;2023-03-29T07:50:31;5.00;;;2.10;;
36247;SDS011;22287;50.824;5.644;2023-03-29T07:53:01;4.38;;;2.40;;
36247;SDS011;22287;50.824;5.644;2023-03-29T07:55:30;5.70;;;2.00;;
36247;SDS011;22287;50.824;5.644;2023-03-29T07:58:21;4.07;;;1.70;;
36247;SDS011;22287;50.824;5.644;2023-03-29T08:00:48;4.72;;;1.63;;
36247;SDS011;22287;50.824;5.644;2023-03-29T08:03:42;5.57;;;1.90;;
36247;SDS011;22287;50.824;5.644;2023-03-29T08:06:09;7.85;;;2.05;;
36247;SDS011;22287;50.824;5.644;2023-03-29T08:08:36;6.65;;;1.77;;
36247;SDS011;22287;50.824;5.644;2023-03-29T08:11:09;3.55;;;1.52;;
36247;SDS011;22287;50.824;5.644;2023-03-29T08:13:49;5.25;;;2.05;;
36247;SDS011;22287;50.824;5.644;2023-03-29T08:16:25;4.00;;;1.60;;
36247;SDS011;22287;50.824;5.644;2023-03-29T08:19:03;4.22;;;1.83;;
36247;SDS011;22287;50.824;5.644;2023-03-29T08:21:53;4.03;;;1.70;;
36247;SDS011;22287;50.824;5.644;2023-03-29T08:24:22;4.82;;;1.98;;
36247;SDS011;22287;50.824;5.644;2023-03-29T08:26:55;4.03;;;1.90;;
36247;SDS011;22287;50.824;5.644;2023-03-29T08:29:23;3.60;;;2.08;;
36247;SDS011;22287;50.824;5.644;2023-03-29T08:31:50;6.55;;;1.80;;
36247;SDS011;22287;50.824;5.644;2023-03-29T08:34:17;6.80;;;2.00;;
36247;SDS011;22287;50.824;5.644;2023-03-29T08:36:57;4.82;;;2.03;;
36247;SDS011;22287;50.824;5.644;2023-03-29T08:39:34;4.65;;;1.92;;
36247;SDS011;22287;50.824;5.644;2023-03-29T08:42:37;5.30;;;1.70;;
36247;SDS011;22287;50.824;5.644;2023-03-29T08:48:48;3.92;;;1.65;;
36247;SDS011;22287;50.824;5.644;2023-03-29T08:51:41;3.88;;;1.92;;
36247;SDS011;22287;50.824;5.644;2023-03-29T08:54:36;6.63;;;2.40;;
36247;SDS011;22287;50.824;5.644;2023-03-29T09:03:06;3.47;;;1.73;;
36247;SDS011;22287;50.824;5.644;2023-03-29T09:05:39;5.35;;;2.25;;
36247;SDS011;22287;50.824;5.644;2023-03-29T09:08:20;5.38;;;1.60;;
36247;SDS011;22287;50.824;5.644;2023-03-29T09:38:36;3.55;;;1.80;;
36247;SDS011;22287;50.824;5.644;2023-03-29T09:43:48;3.47;;;1.67;;
36247;SDS011;22287;50.824;5.644;2023-03-29T09:46:41;5.43;;;2.20;;
36247;SDS011;22287;50.824;5.644;2023-03-29T09:49:12;6.50;;;2.20;;
36247;SDS011;22287;50.824;5.644;2023-03-29T09:51:44;5.05;;;2.15;;
36247;SDS011;22287;50.824;5.644;2023-03-29T09:54:15;3.92;;;2.00;;
36247;SDS011;22287;50.824;5.644;2023-03-29T09:57:01;3.28;;;1.70;;
36247;SDS011;22287;50.824;5.644;2023-03-29T09:59:28;4.18;;;1.95;;
36247;SDS011;22287;50.824;5.644;2023-03-29T10:02:06;4.68;;;1.80;;
36247;SDS011;22287;50.824;5.644;2023-03-29T10:04:35;5.70;;;1.92;;
36247;SDS011;22287;50.824;5.644;2023-03-29T10:07:02;4.38;;;2.05;;
36247;SDS011;22287;50.824;5.644;2023-03-29T10:09:31;6.88;;;1.67;;
36247;SDS011;22287;50.824;5.644;2023-03-29T10:12:12;4.22;;;1.70;;
36247;SDS011;22287;50.824;5.644;2023-03-29T10:14:43;4.05;;;2.00;;
36247;SDS011;22287;50.824;5.644;2023-03-29T10:17:18;4.72;;;2.10;;
36247;SDS011;22287;50.824;5.644;2023-03-29T10:20:00;4.80;;;1.98;;
36247;SDS011;22287;50.824;5.644;2023-03-29T10:22:34;3.53;;;1.70;;
36247;SDS011;22287;50.824;5.644;2023-03-29T10:25:03;3.00;;;2.20;;
36247;SDS011;22287;50.824;5.644;2023-03-29T10:27:39;6.38;;;2.40;;
36247;SDS011;22287;50.824;5.644;2023-03-29T10:30:08;6.05;;;2.28;;
36247;SDS011;22287;50.824;5.644;2023-03-29T10:32:38;4.90;;;2.20;;
36247;SDS011;22287;50.824;5.644;2023-03-29T10:35:08;4.00;;;2.20;;
36247;SDS011;22287;50.824;5.644;2023-03-29T10:37:44;4.10;;;2.42;;
36247;SDS011;22287;50.824;5.644;2023-03-29T10:40:26;4.60;;;2.10;;
36247;SDS011;22287;50.824;5.644;2023-03-29T10:43:00;3.47;;;1.98;;
36247;SDS011;22287;50.824;5.644;2023-03-29T10:45:50;5.10;;;2.30;;
36247;SDS011;22287;50.824;5.644;2023-03-29T10:48:22;2.85;;;1.92;;
36247;SDS011;22287;50.824;5.644;2023-03-29T10:50:57;4.10;;;2.03;;
36247;SDS011;22287;50.824;5.644;2023-03-29T10:53:27;3.15;;;1.83;;
36247;SDS011;22287;50.824;5.644;2023-03-29T11:11:18;5.30;;;2.00;;
36247;SDS011;22287;50.824;5.644;2023-03-29T11:14:02;4.13;;;1.70;;
36247;SDS011;22287;50.824;5.644;2023-03-29T11:30:27;4.15;;;1.23;;
36247;SDS011;22287;50.824;5.644;2023-03-29T11:33:11;3.20;;;1.58;;
36247;SDS011;22287;50.824;5.644;2023-03-29T11:41:29;3.53;;;1.45;;
36247;SDS011;22287;50.824;5.644;2023-03-29T11:44:04;5.03;;;1.42;;
36247;SDS011;22287;50.824;5.644;2023-03-29T11:55:11;2.67;;;1.33;;
36247;SDS011;22287;50.824;5.644;2023-03-29T12:03:06;6.68;;;1.25;;
36247;SDS011;22287;50.824;5.644;2023-03-29T12:05:44;7.43;;;1.42;;
36247;SDS011;22287;50.824;5.644;2023-03-29T12:08:16;5.60;;;1.30;;
36247;SDS011;22287;50.824;5.644;2023-03-29T12:11:06;2.90;;;1.33;;
36247;SDS011;22287;50.824;5.644;2023-03-29T12:16:20;3.30;;;2.03;;
36247;SDS011;22287;50.824;5.644;2023-03-29T12:19:36;3.47;;;1.50;;
36247;SDS011;22287;50.824;5.644;2023-03-29T12:21:57;2.08;;;1.50;;
36247;SDS011;22287;50.824;5.644;2023-03-29T12:24:28;3.40;;;1.30;;
36247;SDS011;22287;50.824;5.644;2023-03-29T12:32:30;5.28;;;1.55;;
36247;SDS011;22287;50.824;5.644;2023-03-29T12:38:19;3.17;;;1.60;;
36247;SDS011;22287;50.824;5.644;2023-03-29T12:41:22;2.47;;;1.40;;
36247;SDS011;22287;50.824;5.644;2023-03-29T12:44:14;3.67;;;1.60;;
36247;SDS011;22287;50.824;5.644;2023-03-29T12:47:08;3.03;;;1.63;;
36247;SDS011;22287;50.824;5.644;2023-03-29T12:49:44;4.20;;;1.45;;
36247;SDS011;22287;50.824;5.644;2023-03-29T12:52:34;2.50;;;1.35;;
36247;SDS011;22287;50.824;5.644;2023-03-29T12:55:02;5.72;;;1.48;;
36247;SDS011;22287;50.824;5.644;2023-03-29T12:57:43;3.72;;;1.33;;
36247;SDS011;22287;50.824;5.644;2023-03-29T13:00:29;3.00;;;1.17;;
36247;SDS011;22287;50.824;5.644;2023-03-29T13:03:28;11.43;;;1.75;;
36247;SDS011;22287;50.824;5.644;2023-03-29T13:06:01;4.25;;;1.67;;
36247;SDS011;22287;50.824;5.644;2023-03-29T13:08:35;4.30;;;1.50;;
36247;SDS011;22287;50.824;5.644;2023-03-29T13:11:05;3.78;;;1.40;;
36247;SDS011;22287;50.824;5.644;2023-03-29T13:13:37;2.42;;;1.33;;
36247;SDS011;22287;50.824;5.644;2023-03-29T13:16:10;4.72;;;1.30;;
36247;SDS011;22287;50.824;5.644;2023-03-29T13:21:40;2.72;;;1.33;;
36247;SDS011;22287;50.824;5.644;2023-03-29T13:27:39;2.38;;;1.33;;
36247;SDS011;22287;50.824;5.644;2023-03-29T13:30:22;2.78;;;1.50;;
36247;SDS011;22287;50.824;5.644;2023-03-29T13:35:41;4.65;;;1.40;;
36247;SDS011;22287;50.824;5.644;2023-03-29T13:38:23;4.60;;;1.50;;
36247;SDS011;22287;50.824;5.644;2023-03-29T13:43:21;1.92;;;1.17;;
36247;SDS011;22287;50.824;5.644;2023-03-29T13:48:32;2.17;;;1.05;;
36247;SDS011;22287;50.824;5.644;2023-03-29T13:51:33;3.00;;;1.00;;
36247;SDS011;22287;50.824;5.644;2023-03-29T13:54:14;2.03;;;0.68;;
36247;SDS011;22287;50.824;5.644;2023-03-29T13:57:04;3.38;;;0.80;;
36247;SDS011;22287;50.824;5.644;2023-03-29T13:59:39;1.15;;;0.60;;
36247;SDS011;22287;50.824;5.644;2023-03-29T14:05:17;1.77;;;1.10;;
36247;SDS011;22287;50.824;5.644;2023-03-29T14:07:49;1.98;;;0.70;;
36247;SDS011;22287;50.824;5.644;2023-03-29T14:10:40;4.50;;;1.02;;
36247;SDS011;22287;50.824;5.644;2023-03-29T14:13:11;7.63;;;2.05;;
36247;SDS011;22287;50.824;5.644;2023-03-29T14:15:43;3.03;;;1.10;;
36247;SDS011;22287;50.824;5.644;2023-03-29T14:18:15;2.88;;;0.90;;
36247;SDS011;22287;50.824;5.644;2023-03-29T14:20:45;2.58;;;0.82;;
36247;SDS011;22287;50.824;5.644;2023-03-29T14:23:16;3.00;;;1.15;;
36247;SDS011;22287;50.824;5.644;2023-03-29T14:25:46;1.27;;;0.90;;
36247;SDS011;22287;50.824;5.644;2023-03-29T14:28:21;1.67;;;0.93;;
36247;SDS011;22287;50.824;5.644;2023-03-29T14:30:54;2.05;;;0.73;;
36247;SDS011;22287;50.824;5.644;2023-03-29T14:35:54;2.70;;;1.00;;
36247;SDS011;22287;50.824;5.644;2023-03-29T14:38:23;3.65;;;0.80;;
36247;SDS011;22287;50.824;5.644;2023-03-29T14:40:51;3.97;;;1.10;;
36247;SDS011;22287;50.824;5.644;2023-03-29T14:43:20;2.80;;;1.02;;
36247;SDS011;22287;50.824;5.644;2023-03-29T14:45:49;2.47;;;0.95;;
36247;SDS011;22287;50.824;5.644;2023-03-29T14:48:16;1.58;;;0.90;;
36247;SDS011;22287;50.824;5.644;2023-03-29T14:50:43;2.55;;;0.93;;
36247;SDS011;22287;50.824;5.644;2023-03-29T14:53:15;1.88;;;0.95;;
36247;SDS011;22287;50.824;5.644;2023-03-29T14:55:47;2.35;;;0.88;;
36247;SDS011;22287;50.824;5.644;2023-03-29T15:00:49;2.38;;;0.95;;
36247;SDS011;22287;50.824;5.644;2023-03-29T15:03:18;3.08;;;1.00;;
36247;SDS011;22287;50.824;5.644;2023-03-29T15:08:34;7.47;;;1.73;;
36247;SDS011;22287;50.824;5.644;2023-03-29T15:11:10;5.25;;;1.30;;
36247;SDS011;22287;50.824;5.644;2023-03-29T15:13:49;2.78;;;1.25;;
36247;SDS011;22287;50.824;5.644;2023-03-29T15:16:19;3.38;;;1.00;;
36247;SDS011;22287;50.824;5.644;2023-03-29T15:18:48;3.42;;;1.00;;
36247;SDS011;22287;50.824;5.644;2023-03-29T15:21:19;4.43;;;1.17;;
36247;SDS011;22287;50.824;5.644;2023-03-29T15:23:57;1.83;;;0.90;;
36247;SDS011;22287;50.824;5.644;2023-03-29T15:26:35;3.65;;;1.20;;
36247;SDS011;22287;50.824;5.644;2023-03-29T15:31:34;1.85;;;1.00;;
36247;SDS011;22287;50.824;5.644;2023-03-29T15:34:04;10.02;;;2.05;;
36247;SDS011;22287;50.824;5.644;2023-03-29T15:36:39;1.33;;;0.85;;
36247;SDS011;22287;50.824;5.644;2023-03-29T15:39:10;2.95;;;1.17;;
36247;SDS011;22287;50.824;5.644;2023-03-29T15:41:41;2.53;;;0.70;;
36247;SDS011;22287;50.824;5.644;2023-03-29T15:44:09;2.55;;;1.08;;
36247;SDS011;22287;50.824;5.644;2023-03-29T15:46:37;3.72;;;1.48;;
36247;SDS011;22287;50.824;5.644;2023-03-29T15:49:04;2.75;;;1.00;;
36247;SDS011;22287;50.824;5.644;2023-03-29T15:51:31;1.88;;;1.10;;
36247;SDS011;22287;50.824;5.644;2023-03-29T15:53:58;5.18;;;1.30;;
36247;SDS011;22287;50.824;5.644;2023-03-29T15:56:25;3.35;;;1.13;;
36247;SDS011;22287;50.824;5.644;2023-03-29T15:58:52;2.58;;;1.85;;
36247;SDS011;22287;50.824;5.644;2023-03-29T16:04:00;2.28;;;1.15;;
36247;SDS011;22287;50.824;5.644;2023-03-29T16:06:32;3.20;;;1.02;;
36247;SDS011;22287;50.824;5.644;2023-03-29T16:08:59;3.85;;;1.20;;
36247;SDS011;22287;50.824;5.644;2023-03-29T16:11:27;4.97;;;1.40;;
36247;SDS011;22287;50.824;5.644;2023-03-29T16:13:54;3.45;;;1.55;;
36247;SDS011;22287;50.824;5.644;2023-03-29T16:16:21;3.72;;;1.27;;
36247;SDS011;22287;50.824;5.644;2023-03-29T16:18:49;15.88;;;3.08;;
36247;SDS011;22287;50.824;5.644;2023-03-29T16:21:16;2.67;;;1.38;;
36247;SDS011;22287;50.824;5.644;2023-03-29T16:23:45;3.55;;;1.33;;
36247;SDS011;22287;50.824;5.644;2023-03-29T16:26:13;3.90;;;1.73;;
36247;SDS011;22287;50.824;5.644;2023-03-29T16:28:41;4.07;;;1.27;;
36247;SDS011;22287;50.824;5.644;2023-03-29T16:31:09;4.13;;;1.70;;
36247;SDS011;22287;50.824;5.644;2023-03-29T16:33:37;2.53;;;1.45;;
36247;SDS011;22287;50.824;5.644;2023-03-29T16:36:05;3.38;;;1.40;;
36247;SDS011;22287;50.824;5.644;2023-03-29T16:38:32;5.22;;;1.83;;
36247;SDS011;22287;50.824;5.644;2023-03-29T16:40:59;3.08;;;1.50;;
36247;SDS011;22287;50.824;5.644;2023-03-29T16:43:27;4.50;;;2.10;;
36247;SDS011;22287;50.824;5.644;2023-03-29T16:45:54;4.53;;;1.50;;
36247;SDS011;22287;50.824;5.644;2023-03-29T16:48:21;5.93;;;2.90;;
36247;SDS011;22287;50.824;5.644;2023-03-29T16:50:49;7.55;;;2.38;;
36247;SDS011;22287;50.824;5.644;2023-03-29T16:53:16;8.93;;;2.88;;
36247;SDS011;22287;50.824;5.644;2023-03-29T16:55:47;4.07;;;1.83;;
36247;SDS011;22287;50.824;5.644;2023-03-29T16:58:14;4.30;;;2.70;;
36247;SDS011;22287;50.824;5.644;2023-03-29T17:00:41;5.47;;;2.05;;
36247;SDS011;22287;50.824;5.644;2023-03-29T17:03:11;3.95;;;2.25;;
36247;SDS011;22287;50.824;5.644;2023-03-29T17:05:38;3.85;;;2.17;;
36247;SDS011;22287;50.824;5.644;2023-03-29T17:08:07;3.88;;;2.00;;
36247;SDS011;22287;50.824;5.644;2023-03-29T17:10:37;6.22;;;2.10;;
36247;SDS011;22287;50.824;5.644;2023-03-29T17:13:06;5.00;;;2.28;;
36247;SDS011;22287;50.824;5.644;2023-03-29T17:15:33;5.22;;;2.03;;
36247;SDS011;22287;50.824;5.644;2023-03-29T17:18:03;5.28;;;2.15;;
36247;SDS011;22287;50.824;5.644;2023-03-29T17:20:30;8.00;;;2.70;;
36247;SDS011;22287;50.824;5.644;2023-03-29T17:22:57;4.50;;;2.47;;
36247;SDS011;22287;50.824;5.644;2023-03-29T17:25:24;2.97;;;2.00;;
36247;SDS011;22287;50.824;5.644;2023-03-29T17:27:51;5.43;;;2.78;;
36247;SDS011;22287;50.824;5.644;2023-03-29T17:30:19;7.95;;;2.33;;
36247;SDS011;22287;50.824;5.644;2023-03-29T17:32:46;4.40;;;2.40;;
36247;SDS011;22287;50.824;5.644;2023-03-29T17:35:13;6.95;;;2.50;;
36247;SDS011;22287;50.824;5.644;2023-03-29T17:37:40;4.00;;;2.25;;
36247;SDS011;22287;50.824;5.644;2023-03-29T17:40:08;3.78;;;2.20;;
36247;SDS011;22287;50.824;5.644;2023-03-29T17:42:39;6.95;;;2.75;;
36247;SDS011;22287;50.824;5.644;2023-03-29T17:45:07;4.63;;;2.15;;
36247;SDS011;22287;50.824;5.644;2023-03-29T17:47:35;5.75;;;2.25;;
36247;SDS011;22287;50.824;5.644;2023-03-29T17:50:03;4.55;;;2.58;;
36247;SDS011;22287;50.824;5.644;2023-03-29T17:52:32;5.45;;;2.53;;
36247;SDS011;22287;50.824;5.644;2023-03-29T17:54:59;5.60;;;2.50;;
36247;SDS011;22287;50.824;5.644;2023-03-29T17:57:26;7.25;;;3.83;;
36247;SDS011;22287;50.824;5.644;2023-03-29T17:59:53;5.43;;;2.78;;